Time;durP1;ratioP1;P1;durP2;ratioP2;P2;SDS_P1;SDS_P2;PMS_P1;PMS_P2;Temp;Humidity;BMP_temperature;BMP_pressure;BME280_temperature;BME280_humidity;BME280_pressure;Samples;Min_cycle;Max_cycle;Signal;HPM_P1;HPM_P2
2023/09/20 00:04:50;;;;;;;59.70;54.83;;;;;;;;;;10478316;28;20032;-70
2023/09/20 00:09:50;;;;;;;352.63;330.13;;;;;;;;;;10484707;28;20353;-70
2023/09/20 00:14:51;;;;;;;699.88;652.53;;;;;;;;;;10502337;28;20051;-70
2023/09/20 00:19:51;;;;;;;843.42;774.25;;;;;;;;;;10499918;28;20048;-70
2023/09/20 00:24:54;;;;;;;870.38;793.38;;;;;;;;;;10467292;28;20027;-70
2023/09/20 00:29:55;;;;;;;12.00;7.30;;;;;;;;;;10471004;28;20055;-69
2023/09/20 00:34:56;;;;;;;12.00;6.05;;;;;;;;;;10470526;28;20028;-69
2023/09/20 00:39:56;;;;;;;10.20;6.47;;;;;;;;;;10501358;28;20039;-69
2023/09/20 00:45:01;;;;;;;10.60;7.57;;;;;;;;;;10488341;28;20031;-70
2023/09/20 00:50:01;;;;;;;13.52;8.50;;;;;;;;;;10465352;28;20317;-70
2023/09/20 00:55:03;;;;;;;15.90;8.93;;;;;;;;;;10461142;28;20038;-69
2023/09/20 01:00:13;;;;;;;14.68;9.50;;;;;;;;;;10500804;28;20035;-72
2023/09/20 01:05:14;;;;;;;12.35;8.68;;;;;;;;;;10500724;28;20023;-69
2023/09/20 01:10:15;;;;;;;15.35;9.00;;;;;;;;;;10500343;28;20064;-70
2023/09/20 01:15:15;;;;;;;15.10;8.67;;;;;;;;;;10499753;28;20052;-70
2023/09/20 01:20:19;;;;;;;11.88;8.45;;;;;;;;;;10499845;28;20497;-70
2023/09/20 01:25:32;;;;;;;17.50;9.73;;;;;;;;;;10486232;28;20066;-70
2023/09/20 01:30:36;;;;;;;13.15;9.80;;;;;;;;;;10458607;28;20033;-70
2023/09/20 01:35:37;;;;;;;268.42;243.80;;;;;;;;;;10480590;28;20025;-70
2023/09/20 01:40:39;;;;;;;569.30;532.08;;;;;;;;;;10473859;28;20219;-70
2023/09/20 01:45:43;;;;;;;837.88;776.53;;;;;;;;;;10457969;28;20096;-70
2023/09/20 01:50:44;;;;;;;847.83;773.40;;;;;;;;;;10471665;28;20082;-70
2023/09/20 01:55:44;;;;;;;882.45;810.83;;;;;;;;;;10481652;28;20029;-70
2023/09/20 02:00:50;;;;;;;772.83;717.88;;;;;;;;;;10471040;28;20027;-70
2023/09/20 02:05:50;;;;;;;851.53;783.67;;;;;;;;;;10500111;28;20024;-70
2023/09/20 02:10:51;;;;;;;868.90;790.47;;;;;;;;;;10498676;28;20048;-68
2023/09/20 02:15:52;;;;;;;848.03;768.78;;;;;;;;;;10473723;28;20033;-70
2023/09/20 02:20:55;;;;;;;784.08;706.65;;;;;;;;;;10471663;28;20043;-70
2023/09/20 02:25:56;;;;;;;879.38;796.30;;;;;;;;;;10461610;28;20104;-70
2023/09/20 02:30:56;;;;;;;902.72;813.20;;;;;;;;;;10459434;28;20222;-70
2023/09/20 02:35:57;;;;;;;892.03;804.60;;;;;;;;;;10483863;28;20321;-70
2023/09/20 02:40:57;;;;;;;862.60;780.95;;;;;;;;;;10486975;28;20065;-69
2023/09/20 02:46:05;;;;;;;881.30;801.90;;;;;;;;;;10472101;28;20028;-69
2023/09/20 02:51:05;;;;;;;815.67;727.90;;;;;;;;;;10463706;28;20343;-69
2023/09/20 02:56:06;;;;;;;828.83;760.35;;;;;;;;;;10470158;28;20021;-69
2023/09/20 03:01:09;;;;;;;796.50;730.63;;;;;;;;;;10463439;28;20311;-69
2023/09/20 03:06:09;;;;;;;782.95;727.00;;;;;;;;;;10463033;28;20043;-69
2023/09/20 03:11:17;;;;;;;876.97;789.50;;;;;;;;;;10466475;28;20044;-70
2023/09/20 03:16:18;;;;;;;876.55;798.53;;;;;;;;;;10460545;28;20334;-70
2023/09/20 03:21:19;;;;;;;863.65;786.72;;;;;;;;;;10465216;28;20230;-69
2023/09/20 03:26:19;;;;;;;729.33;669.92;;;;;;;;;;10477440;28;20024;-71
2023/09/20 03:31:22;;;;;;;854.90;777.83;;;;;;;;;;10467659;28;20021;-69
2023/09/20 03:36:22;;;;;;;841.45;760.90;;;;;;;;;;10488104;28;20089;-70
2023/09/20 03:41:24;;;;;;;804.85;719.78;;;;;;;;;;10463564;28;20055;-70
2023/09/20 03:46:24;;;;;;;798.90;713.63;;;;;;;;;;10483054;28;20023;-69
2023/09/20 03:51:24;;;;;;;854.53;774.20;;;;;;;;;;10454153;28;20032;-69
2023/09/20 03:56:25;;;;;;;855.25;768.58;;;;;;;;;;10461635;28;20021;-70
2023/09/20 04:01:25;;;;;;;25.15;11.23;;;;;;;;;;10469271;28;20040;-69
2023/09/20 04:06:29;;;;;;;23.17;10.98;;;;;;;;;;10487603;28;20087;-71
2023/09/20 04:11:30;;;;;;;19.25;10.57;;;;;;;;;;10493229;28;20228;-70
2023/09/20 04:16:30;;;;;;;99.47;87.72;;;;;;;;;;10466372;28;20107;-72
2023/09/20 04:21:33;;;;;;;23.75;12.65;;;;;;;;;;10492518;28;20299;-72
2023/09/20 04:26:34;;;;;;;196.18;175.88;;;;;;;;;;10474842;28;20331;-72
2023/09/20 04:31:35;;;;;;;24.15;11.52;;;;;;;;;;10464200;28;20066;-73
2023/09/20 04:36:35;;;;;;;759.92;695.47;;;;;;;;;;10448591;28;20017;-72
2023/09/20 04:41:39;;;;;;;848.87;767.97;;;;;;;;;;10443300;28;20076;-72
2023/09/20 04:46:40;;;;;;;856.45;772.92;;;;;;;;;;10442592;28;20607;-69
2023/09/20 04:51:42;;;;;;;837.58;753.30;;;;;;;;;;10441478;28;20093;-70
2023/09/20 04:56:47;;;;;;;838.92;757.50;;;;;;;;;;10444366;28;20032;-69
2023/09/20 05:01:49;;;;;;;817.13;732.38;;;;;;;;;;10439371;28;20016;-69
2023/09/20 05:06:49;;;;;;;809.88;722.00;;;;;;;;;;10443119;28;20037;-69
2023/09/20 05:11:50;;;;;;;854.47;763.92;;;;;;;;;;10440742;28;21094;-69
2023/09/20 05:16:50;;;;;;;836.88;747.58;;;;;;;;;;10440244;28;20318;-68
2023/09/20 05:21:50;;;;;;;861.30;770.50;;;;;;;;;;10439170;28;20009;-69
2023/09/20 05:26:50;;;;;;;834.83;745.60;;;;;;;;;;10442176;28;20234;-69
2023/09/20 05:31:51;;;;;;;873.80;782.67;;;;;;;;;;10441243;28;20370;-68
2023/09/20 05:36:53;;;;;;;34.58;18.17;;;;;;;;;;10423394;28;20151;-69
2023/09/20 05:41:54;;;;;;;34.33;16.25;;;;;;;;;;10446058;28;20035;-68
2023/09/20 05:46:54;;;;;;;35.55;17.80;;;;;;;;;;10451797;28;20035;-68
2023/09/20 05:51:54;;;;;;;34.10;16.65;;;;;;;;;;10442041;28;20195;-69
2023/09/20 05:56:54;;;;;;;41.65;15.05;;;;;;;;;;10441011;28;20024;-69
2023/09/20 06:01:55;;;;;;;29.13;14.10;;;;;;;;;;10440993;28;20017;-69
2023/09/20 06:06:55;;;;;;;26.88;14.93;;;;;;;;;;10445527;28;20597;-69
2023/09/20 06:11:55;;;;;;;33.85;15.98;;;;;;;;;;10448721;28;20090;-69
2023/09/20 06:16:57;;;;;;;35.63;17.05;;;;;;;;;;10449539;28;20306;-70
2023/09/20 06:21:57;;;;;;;26.73;13.20;;;;;;;;;;10465856;28;20005;-68
2023/09/20 06:26:58;;;;;;;29.08;15.00;;;;;;;;;;10449778;28;20036;-69
2023/09/20 06:31:59;;;;;;;33.00;16.52;;;;;;;;;;10448388;28;20008;-69
2023/09/20 06:36:59;;;;;;;31.55;16.15;;;;;;;;;;10447776;28;20195;-69
2023/09/20 06:42:00;;;;;;;28.50;15.50;;;;;;;;;;10450402;28;20044;-69
2023/09/20 06:47:00;;;;;;;35.00;17.20;;;;;;;;;;10447177;28;20141;-69
2023/09/20 06:52:03;;;;;;;31.20;15.65;;;;;;;;;;10447362;28;20009;-69
2023/09/20 06:57:04;;;;;;;36.10;16.88;;;;;;;;;;10448760;28;20236;-69
2023/09/20 07:02:07;;;;;;;33.47;17.90;;;;;;;;;;10446506;28;20239;-69
2023/09/20 07:07:07;;;;;;;30.10;15.68;;;;;;;;;;10446946;28;20380;-69
2023/09/20 07:12:09;;;;;;;24.55;14.80;;;;;;;;;;10432034;28;20072;-69
2023/09/20 07:17:10;;;;;;;31.83;16.58;;;;;;;;;;10447504;28;20052;-69
2023/09/20 07:22:12;;;;;;;34.90;18.65;;;;;;;;;;10430819;28;20241;-69
2023/09/20 07:27:12;;;;;;;27.40;16.38;;;;;;;;;;10447301;28;20028;-68
2023/09/20 07:32:15;;;;;;;35.50;17.73;;;;;;;;;;10453101;28;20084;-68
2023/09/20 07:37:16;;;;;;;32.30;16.77;;;;;;;;;;10452176;28;20021;-69
2023/09/20 07:42:17;;;;;;;28.75;16.30;;;;;;;;;;10433530;28;20025;-69
2023/09/20 07:47:20;;;;;;;26.20;15.25;;;;;;;;;;10452970;28;20207;-68
2023/09/20 07:52:20;;;;;;;24.90;14.10;;;;;;;;;;10451203;28;20021;-70
2023/09/20 07:57:22;;;;;;;23.40;14.87;;;;;;;;;;10454599;28;20032;-70
2023/09/20 08:02:23;;;;;;;25.77;13.38;;;;;;;;;;10466798;28;20016;-68
2023/09/20 08:07:24;;;;;;;23.58;12.93;;;;;;;;;;10450850;28;20028;-69
2023/09/20 08:12:24;;;;;;;21.02;12.60;;;;;;;;;;10450054;28;20047;-68
2023/09/20 09:00:17;;;;;;;26.63;14.90;;;;;;;;;;10449251;28;20033;-71
2023/09/20 09:05:18;;;;;;;21.60;13.65;;;;;;;;;;10451022;28;20108;-69
2023/09/20 09:10:18;;;;;;;25.10;13.70;;;;;;;;;;10430920;28;20017;-69
2023/09/20 09:15:18;;;;;;;24.05;13.55;;;;;;;;;;10449777;28;20307;-69
2023/09/20 09:20:19;;;;;;;19.52;12.45;;;;;;;;;;10447560;28;20025;-69
2023/09/20 09:25:25;;;;;;;26.65;14.43;;;;;;;;;;10449618;28;20039;-70
2023/09/20 09:30:26;;;;;;;26.90;13.32;;;;;;;;;;10448102;28;20626;-70
2023/09/20 09:35:27;;;;;;;22.50;12.30;;;;;;;;;;10447424;28;20131;-70
2023/09/20 09:40:28;;;;;;;20.52;11.40;;;;;;;;;;10453212;28;20219;-69
2023/09/20 09:45:30;;;;;;;20.08;9.57;;;;;;;;;;10462611;28;20252;-70
2023/09/20 09:50:31;;;;;;;25.45;10.85;;;;;;;;;;10460862;28;20048;-70
2023/09/20 09:55:31;;;;;;;19.63;10.00;;;;;;;;;;10460812;28;20032;-70
2023/09/20 10:00:32;;;;;;;20.53;9.70;;;;;;;;;;10461752;28;20024;-70
2023/09/20 10:05:33;;;;;;;11.25;8.20;;;;;;;;;;10460023;28;20325;-70
2023/09/20 10:10:34;;;;;;;13.90;6.03;;;;;;;;;;10460840;28;20307;-70
2023/09/20 10:15:35;;;;;;;9.90;4.28;;;;;;;;;;10462475;28;20148;-70
2023/09/20 10:20:57;;;;;;;9.63;4.88;;;;;;;;;;10442068;28;20020;-71
2023/09/20 10:26:00;;;;;;;14.45;4.93;;;;;;;;;;10462057;28;20020;-71
2023/09/20 10:31:04;;;;;;;7.50;5.03;;;;;;;;;;10462318;28;20016;-71
2023/09/20 10:36:06;;;;;;;10.02;5.03;;;;;;;;;;10462127;28;20060;-71
2023/09/20 10:41:10;;;;;;;11.55;5.68;;;;;;;;;;10460006;28;20044;-71
2023/09/20 10:46:12;;;;;;;12.07;5.43;;;;;;;;;;10461551;28;20029;-71
2023/09/20 10:51:12;;;;;;;10.27;4.50;;;;;;;;;;10457444;28;20361;-71
2023/09/20 10:56:32;;;;;;;9.77;3.63;;;;;;;;;;10435441;28;20079;-70
2023/09/20 11:01:32;;;;;;;6.95;3.35;;;;;;;;;;10454433;28;20020;-70
2023/09/20 11:06:33;;;;;;;5.15;2.05;;;;;;;;;;10452863;28;20113;-69
2023/09/20 11:11:33;;;;;;;9.45;2.97;;;;;;;;;;10452636;28;20688;-70
2023/09/20 11:16:34;;;;;;;7.95;2.55;;;;;;;;;;10452017;28;20262;-70
2023/09/20 11:21:34;;;;;;;7.40;3.00;;;;;;;;;;10452417;28;20025;-70
2023/09/20 11:26:34;;;;;;;5.47;3.05;;;;;;;;;;10451806;28;20017;-69
2023/09/20 11:31:36;;;;;;;8.65;3.33;;;;;;;;;;10434179;28;20061;-69
2023/09/20 11:36:44;;;;;;;7.18;3.38;;;;;;;;;;10453661;28;20311;-69
2023/09/20 11:41:44;;;;;;;7.18;4.18;;;;;;;;;;10450471;28;20012;-69
2023/09/20 11:46:54;;;;;;;12.07;4.00;;;;;;;;;;10451792;28;20032;-69
2023/09/20 11:51:57;;;;;;;10.50;3.38;;;;;;;;;;10450962;28;20350;-69
2023/09/20 11:56:59;;;;;;;7.50;4.40;;;;;;;;;;10451388;28;20020;-70
2023/09/20 12:02:02;;;;;;;13.50;4.22;;;;;;;;;;10432060;28;20017;-70
2023/09/20 12:07:02;;;;;;;8.02;3.63;;;;;;;;;;10435388;28;20255;-70
2023/09/20 12:12:05;;;;;;;13.98;3.47;;;;;;;;;;10451485;28;20076;-70
2023/09/20 12:17:07;;;;;;;6.13;3.55;;;;;;;;;;10451072;28;20270;-70
2023/09/20 12:22:07;;;;;;;10.45;3.28;;;;;;;;;;10455397;28;20009;-69
2023/09/20 12:27:07;;;;;;;8.52;3.47;;;;;;;;;;10450011;28;20203;-69
2023/09/20 12:32:08;;;;;;;10.80;4.53;;;;;;;;;;10431690;28;20225;-69
2023/09/20 12:37:08;;;;;;;11.93;3.03;;;;;;;;;;10448840;28;20029;-70
2023/09/20 12:42:09;;;;;;;5.95;2.45;;;;;;;;;;10453417;28;20070;-70
2023/09/20 12:47:09;;;;;;;9.15;3.35;;;;;;;;;;10448855;28;20314;-70
2023/09/20 12:52:10;;;;;;;14.50;3.67;;;;;;;;;;10449220;28;20063;-71
2023/09/20 12:57:11;;;;;;;4.60;2.85;;;;;;;;;;10454386;28;20075;-70
2023/09/20 13:02:12;;;;;;;4.47;2.90;;;;;;;;;;10449300;28;20048;-70
2023/09/20 13:07:12;;;;;;;8.30;3.13;;;;;;;;;;10448321;28;20088;-69
2023/09/20 13:12:13;;;;;;;8.02;3.17;;;;;;;;;;10449448;28;20542;-70
2023/09/20 13:17:13;;;;;;;13.20;3.38;;;;;;;;;;10447244;28;20028;-71
2023/09/20 13:22:13;;;;;;;9.40;2.58;;;;;;;;;;10458606;28;20092;-71
2023/09/20 13:27:14;;;;;;;10.50;3.53;;;;;;;;;;10433174;28;20013;-72
2023/09/20 13:32:14;;;;;;;6.25;2.63;;;;;;;;;;10446927;28;20477;-70
2023/09/20 13:37:15;;;;;;;6.10;2.50;;;;;;;;;;10447395;28;20299;-69
2023/09/20 13:42:15;;;;;;;9.93;3.10;;;;;;;;;;10449462;28;20024;-69
2023/09/20 13:47:18;;;;;;;9.18;3.70;;;;;;;;;;10440053;28;20028;-71
2023/09/20 13:52:19;;;;;;;12.05;2.67;;;;;;;;;;10443061;28;20282;-69
2023/09/20 13:57:19;;;;;;;11.20;2.58;;;;;;;;;;10446266;28;20028;-70
2023/09/20 14:02:20;;;;;;;15.45;3.08;;;;;;;;;;10448354;28;20028;-70
2023/09/20 14:07:20;;;;;;;9.13;2.97;;;;;;;;;;10445388;28;20028;-70
2023/09/20 14:12:21;;;;;;;11.67;3.40;;;;;;;;;;10448440;28;20151;-70
2023/09/20 14:17:22;;;;;;;16.05;3.67;;;;;;;;;;10447778;28;20295;-71
2023/09/20 14:22:22;;;;;;;13.38;2.47;;;;;;;;;;10447993;28;20086;-70
2023/09/20 14:27:22;;;;;;;14.32;2.63;;;;;;;;;;10449255;28;20067;-70
2023/09/20 14:32:23;;;;;;;10.95;2.60;;;;;;;;;;10455505;28;20311;-70
2023/09/20 14:37:26;;;;;;;9.77;2.50;;;;;;;;;;10454497;28;20033;-69
2023/09/20 14:42:29;;;;;;;10.43;3.58;;;;;;;;;;10453185;28;20059;-69
2023/09/20 14:47:29;;;;;;;7.30;2.55;;;;;;;;;;10453954;28;20028;-70
2023/09/20 14:52:30;;;;;;;7.38;2.05;;;;;;;;;;10456092;28;20325;-69
2023/09/20 14:57:31;;;;;;;14.00;3.58;;;;;;;;;;10454555;28;20094;-70
2023/09/20 15:02:32;;;;;;;12.05;4.45;;;;;;;;;;10454726;28;20009;-69
2023/09/20 15:07:33;;;;;;;16.70;4.43;;;;;;;;;;10452814;28;20103;-69
2023/09/20 15:12:33;;;;;;;8.93;3.92;;;;;;;;;;10455039;28;20131;-71
2023/09/20 15:17:34;;;;;;;17.23;4.00;;;;;;;;;;10453473;28;20036;-71
2023/09/20 15:22:34;;;;;;;12.15;4.03;;;;;;;;;;10451723;28;20017;-69
2023/09/20 15:27:34;;;;;;;13.70;3.80;;;;;;;;;;10452238;28;20315;-69
2023/09/20 15:32:35;;;;;;;10.00;4.33;;;;;;;;;;10452479;28;20025;-69
2023/09/20 15:37:38;;;;;;;13.52;3.90;;;;;;;;;;10450653;28;20156;-69
2023/09/20 15:42:39;;;;;;;16.15;4.40;;;;;;;;;;10450867;28;20016;-69
2023/09/20 15:47:39;;;;;;;11.63;4.50;;;;;;;;;;10452200;28;20012;-70
2023/09/20 15:52:40;;;;;;;10.70;3.80;;;;;;;;;;10451654;28;20043;-71
2023/09/20 15:57:40;;;;;;;10.13;4.32;;;;;;;;;;10451620;28;20024;-71
2023/09/20 16:02:41;;;;;;;11.13;4.30;;;;;;;;;;10450920;28;20126;-71
2023/09/20 16:07:41;;;;;;;19.40;4.53;;;;;;;;;;10450315;28;20070;-71
2023/09/20 16:12:44;;;;;;;20.17;4.78;;;;;;;;;;10450007;28;20339;-70
2023/09/20 16:17:45;;;;;;;15.50;4.47;;;;;;;;;;10433902;28;20033;-69
2023/09/20 16:22:46;;;;;;;19.45;6.13;;;;;;;;;;10445739;28;20230;-70
2023/09/20 16:28:03;;;;;;;13.55;5.70;;;;;;;;;;10433418;28;20025;-87
2023/09/20 16:33:05;;;;;;;11.95;4.93;;;;;;;;;;10449859;28;20028;-69
2023/09/20 16:38:11;;;;;;;18.90;5.78;;;;;;;;;;10445414;28;20458;-70
2023/09/20 16:43:14;;;;;;;15.57;5.97;;;;;;;;;;10444020;28;20041;-70
2023/09/20 16:48:15;;;;;;;21.17;5.40;;;;;;;;;;10423803;28;20118;-70
2023/09/20 16:53:15;;;;;;;20.38;6.15;;;;;;;;;;10443087;28;20059;-70
2023/09/20 16:58:15;;;;;;;17.93;6.43;;;;;;;;;;10444542;28;20265;-71
2023/09/20 17:03:15;;;;;;;17.27;6.17;;;;;;;;;;10445791;28;20020;-69
2023/09/20 17:08:16;;;;;;;29.08;6.72;;;;;;;;;;10445109;28;20166;-74
2023/09/20 17:13:16;;;;;;;21.90;6.63;;;;;;;;;;10445517;28;20307;-76
2023/09/20 17:18:16;;;;;;;16.17;6.93;;;;;;;;;;10444059;28;20033;-70
2023/09/20 17:23:17;;;;;;;22.53;9.30;;;;;;;;;;10444569;28;20331;-70
2023/09/20 17:28:17;;;;;;;18.33;6.72;;;;;;;;;;10446250;28;20017;-71
2023/09/20 17:33:18;;;;;;;17.17;6.13;;;;;;;;;;10444804;28;20032;-71
2023/09/20 17:38:21;;;;;;;17.55;6.53;;;;;;;;;;10445338;28;20052;-77
2023/09/20 17:43:22;;;;;;;14.88;6.13;;;;;;;;;;10428165;28;20025;-74
2023/09/20 17:48:24;;;;;;;20.38;6.60;;;;;;;;;;10428420;28;21324;-81
2023/09/20 17:53:25;;;;;;;16.63;5.65;;;;;;;;;;10435212;28;20090;-80
2023/09/20 17:58:28;;;;;;;18.10;8.37;;;;;;;;;;10453734;28;20315;-75
2023/09/20 18:03:32;;;;;;;19.40;8.65;;;;;;;;;;10472311;28;20079;-74
2023/09/20 18:08:32;;;;;;;28.25;11.82;;;;;;;;;;10451902;28;20029;-68
2023/09/20 18:13:33;;;;;;;19.63;9.68;;;;;;;;;;10450606;28;20045;-71
2023/09/20 18:18:33;;;;;;;15.90;5.97;;;;;;;;;;10434874;28;20216;-81
2023/09/20 18:23:35;;;;;;;13.30;5.93;;;;;;;;;;10472704;28;20013;-82
2023/09/20 18:28:35;;;;;;;13.57;5.25;;;;;;;;;;10463146;28;20231;-78
2023/09/20 18:33:35;;;;;;;13.35;5.47;;;;;;;;;;10452928;28;20039;-77
2023/09/20 18:38:36;;;;;;;21.02;6.88;;;;;;;;;;10453256;28;20028;-79
2023/09/20 18:43:37;;;;;;;10.45;5.20;;;;;;;;;;10460328;28;20318;-85
2023/09/20 18:48:38;;;;;;;14.35;5.40;;;;;;;;;;10475132;28;20028;-83
2023/09/20 18:53:41;;;;;;;15.77;6.30;;;;;;;;;;10467478;28;20262;-79
2023/09/20 18:58:42;;;;;;;15.63;7.57;;;;;;;;;;10453224;28;20024;-73
2023/09/20 19:03:46;;;;;;;17.40;6.22;;;;;;;;;;10445781;28;20032;-73
2023/09/20 19:08:51;;;;;;;20.52;5.80;;;;;;;;;;10447235;28;20191;-73
2023/09/20 19:13:52;;;;;;;17.98;5.70;;;;;;;;;;10450461;28;20103;-74
2023/09/20 19:18:56;;;;;;;14.50;5.47;;;;;;;;;;10447233;28;20318;-73
2023/09/20 19:23:58;;;;;;;17.75;7.15;;;;;;;;;;10447826;28;20017;-73
2023/09/20 19:28:58;;;;;;;15.80;5.95;;;;;;;;;;10445157;28;20032;-73
2023/09/20 19:33:58;;;;;;;18.52;7.57;;;;;;;;;;10447128;28;20029;-73
2023/09/20 19:38:58;;;;;;;10.07;6.07;;;;;;;;;;10447333;28;20036;-73
2023/09/20 19:43:59;;;;;;;21.27;6.43;;;;;;;;;;10445852;28;20247;-73
2023/09/20 19:49:00;;;;;;;17.50;5.83;;;;;;;;;;10445711;28;20055;-73
2023/09/20 19:54:04;;;;;;;16.08;6.25;;;;;;;;;;10447112;28;20086;-72
2023/09/20 19:59:04;;;;;;;14.35;6.68;;;;;;;;;;10447918;28;20078;-72
2023/09/20 20:04:04;;;;;;;15.40;7.17;;;;;;;;;;10445134;28;20088;-83
2023/09/20 20:09:06;;;;;;;20.63;5.90;;;;;;;;;;10450786;28;20013;-75
2023/09/20 20:14:08;;;;;;;14.52;7.00;;;;;;;;;;10445996;28;20053;-74
2023/09/20 20:19:09;;;;;;;12.45;6.57;;;;;;;;;;10448564;28;20035;-72
2023/09/20 20:24:09;;;;;;;14.88;7.47;;;;;;;;;;10450554;28;20024;-74
2023/09/20 20:29:10;;;;;;;20.38;7.43;;;;;;;;;;10450449;28;20029;-77
2023/09/20 20:34:11;;;;;;;15.85;7.68;;;;;;;;;;10475517;28;20041;-68
2023/09/20 20:39:11;;;;;;;27.60;14.77;;;;;;;;;;10466483;28;21042;-68
2023/09/20 20:44:12;;;;;;;147.68;135.23;;;;;;;;;;10477453;28;20023;-68
2023/09/20 20:49:13;;;;;;;32.72;16.85;;;;;;;;;;10473518;28;20012;-69
2023/09/20 20:54:14;;;;;;;14.20;5.53;;;;;;;;;;10462318;28;20054;-67
2023/09/20 20:59:20;;;;;;;76.70;63.57;;;;;;;;;;10469269;28;20052;-67
2023/09/20 21:04:20;;;;;;;952.85;879.53;;;;;;;;;;10457291;28;20242;-68
2023/09/20 21:09:28;;;;;;;943.00;868.43;;;;;;;;;;10460959;28;20070;-68
2023/09/20 21:14:28;;;;;;;936.08;855.78;;;;;;;;;;10455025;28;20040;-68
2023/09/20 21:19:28;;;;;;;916.57;841.13;;;;;;;;;;10480735;28;20017;-68
2023/09/20 21:24:28;;;;;;;837.63;776.97;;;;;;;;;;10486191;28;20319;-67
2023/09/20 21:29:29;;;;;;;898.88;825.67;;;;;;;;;;10478893;28;20054;-67
2023/09/20 21:34:31;;;;;;;935.03;849.13;;;;;;;;;;10456893;28;20021;-68
2023/09/20 21:39:31;;;;;;;11.23;4.68;;;;;;;;;;10470454;28;20329;-67
2023/09/20 21:44:32;;;;;;;15.90;5.75;;;;;;;;;;10480633;28;20294;-68
2023/09/20 21:49:32;;;;;;;18.27;6.32;;;;;;;;;;10465438;28;20056;-68
2023/09/20 21:54:32;;;;;;;14.63;5.97;;;;;;;;;;10485016;28;20051;-67
2023/09/20 21:59:32;;;;;;;850.47;788.53;;;;;;;;;;10494682;28;20093;-67
2023/09/20 22:04:34;;;;;;;10.67;5.67;;;;;;;;;;10461208;28;20032;-67
2023/09/20 22:09:36;;;;;;;13.82;5.35;;;;;;;;;;10469502;28;20029;-67
2023/09/20 22:14:36;;;;;;;500.77;465.02;;;;;;;;;;10455835;28;20033;-68
2023/09/20 22:19:37;;;;;;;843.60;783.67;;;;;;;;;;10483532;28;20021;-67
2023/09/20 22:24:37;;;;;;;769.60;709.53;;;;;;;;;;10464323;28;20021;-69
2023/09/20 22:29:37;;;;;;;923.65;840.90;;;;;;;;;;10472688;28;20303;-68
2023/09/20 22:34:38;;;;;;;857.97;777.60;;;;;;;;;;10449347;28;20020;-69
2023/09/20 22:39:39;;;;;;;385.02;345.33;;;;;;;;;;10474329;28;20583;-69
2023/09/20 22:44:39;;;;;;;943.78;852.83;;;;;;;;;;10479852;28;20070;-69
2023/09/20 22:49:40;;;;;;;937.95;865.42;;;;;;;;;;10466341;28;20008;-69
2023/09/20 22:54:40;;;;;;;949.03;875.15;;;;;;;;;;10483878;28;20036;-68
2023/09/20 22:59:41;;;;;;;385.00;355.02;;;;;;;;;;10472542;28;20310;-68
2023/09/20 23:04:41;;;;;;;877.13;814.72;;;;;;;;;;10466048;28;20021;-68
2023/09/20 23:09:41;;;;;;;477.77;446.63;;;;;;;;;;10476170;28;20293;-68
2023/09/20 23:14:41;;;;;;;922.33;856.35;;;;;;;;;;10450261;28;20512;-68
2023/09/20 23:19:48;;;;;;;853.78;790.45;;;;;;;;;;10451949;28;20013;-68
2023/09/20 23:24:50;;;;;;;865.85;802.92;;;;;;;;;;10481358;28;20405;-68
2023/09/20 23:29:50;;;;;;;846.30;786.60;;;;;;;;;;10468896;28;20206;-67
2023/09/20 23:34:51;;;;;;;907.67;843.60;;;;;;;;;;10472618;28;20027;-68
2023/09/20 23:39:52;;;;;;;745.17;694.65;;;;;;;;;;10474139;28;20533;-68
2023/09/20 23:44:52;;;;;;;906.17;840.95;;;;;;;;;;10466619;28;20020;-67
2023/09/20 23:49:54;;;;;;;920.58;851.22;;;;;;;;;;10474471;28;20017;-69
2023/09/20 23:54:54;;;;;;;525.83;493.13;;;;;;;;;;10478822;28;20021;-67
2023/09/20 23:59:55;;;;;;;755.30;703.23;;;;;;;;;;10463711;28;20028;-67
